Terminal Aerodrome Forecast
Issued by NWS Cleveland, OH

Home | Current Version | Previous Version | Text Only | Print | Product List | Glossary Off
Versions: 1 2 3 4 5 6 7 8 9 10 11 12 13 14 15 16 17

000
FTUS41 KCLE 280000 AAA
TAFTOL
TAF AMD
KTOL 280058Z 2801/2824 01010G18KT 6SM -SHRA SCT035 OVC100
      TEMPO 2801/2802 5SM -SHRA BKN025
     FM280300 33010KT P6SM OVC035
     FM280800 31010KT 5SM BR OVC012
      TEMPO 2810/2814 BKN006
     FM281600 34014G22KT P6SM SCT020 BKN035=

USA.gov is the U.S. government's official web portal to all federal, state and local government web resources and services.